Aérodrome :
LOGIN :

S'inscrire | Disclaimer

   EN    FR    IT 

 










Légende :    VFR   VFR Marginal   IFR   IFR Intensif   IFR Très Intensif
Visi : 
Plafond : 
>= 8 km
>= 3000ft
5 à 8 km
1000 à 3000 ft
1500m à 5 km
500 à 1000 ft
800 à 1500m
200 à 500 ft
< 800m
< 200 ft
Symboles :   Orages  Brouillard  Fortes neiges  Fortes précipitations  Vent > 20 kt
SIGMETs :   Divers  Orages  Givrage  Turbulence  Onde Orograph.  Cendres Volcan.






- Altitude de l'aérodrome : 1260 ft
- Code IATA : LDE


LFBT - Tarbes / Ossun

DERNIER METAR :
  • 201230Z AUTO 01004KT 280V060 CAVOK 04/M01 Q1033 NOSIG

METARs EXPIRÉS :
  • 201200Z AUTO 03004KT 330V100 9999 FEW014 03/M01 Q1033 NOSIG
  • 201130Z AUTO 02006KT 340V050 CAVOK 02/M02 Q1034 NOSIG
  • 201100Z AUTO 36003KT CAVOK 01/M01 Q1034 BECMG 07010KT
  • 201030Z AUTO 03004KT CAVOK M00/M02 Q1034 NOSIG
  • 201000Z AUTO 36002KT 9999 OVC068 00/M02 Q1034 BECMG 07010KT
  • 200930Z AUTO VRB01KT 9999 OVC070 M01/M02 Q1034 NOSIG

TAF TAF LFBT
Valide du 20 à 12h jusqu'au 21 à 12h UTC


201100Z 2012/2112 07010KT CAVOK
PROB30
TEMPO 2015/2018 BKN030
BECMG 2100/2102 BKN012
PROB30 2103/2107 09015G25KT



MET'MAP, la Météo Aéronautique d'un coup d'oeil ! - Copyright ORBIFLY Décembre 2007 - Disclaimer

ORBIFLY MET'MAP TEAM :

Programmation & Développement : Alexandra Zaïnal
Sur une idée originale de : Baudouin d'Aumeries
Assistance à la programmation : Marc-Olivier Méhu
Soutien technique & logistique : Manuel Goepfert

Contact : metmap@orbifly.com




SOURCES & CREDITS :

   NOAA